sensor_id;sensor_type;location;lat;lon;timestamp;P1;durP1;ratioP1;P2;durP2;ratioP2
35576;SDS011;21680;52.400;16.920;2022-08-01T00:01:11;4.42;;;3.17;;
35576;SDS011;21680;52.400;16.920;2022-08-01T00:03:38;6.72;;;3.05;;
35576;SDS011;21680;52.400;16.920;2022-08-01T00:06:04;3.25;;;2.80;;
35576;SDS011;21680;52.400;16.920;2022-08-01T00:08:30;3.70;;;2.92;;
35576;SDS011;21680;52.400;16.920;2022-08-01T00:10:56;4.25;;;3.20;;
35576;SDS011;21680;52.400;16.920;2022-08-01T00:13:22;5.42;;;3.47;;
35576;SDS011;21680;52.400;16.920;2022-08-01T00:15:51;4.35;;;2.77;;
35576;SDS011;21680;52.400;16.920;2022-08-01T00:18:18;6.78;;;3.67;;
35576;SDS011;21680;52.400;16.920;2022-08-01T00:20:44;8.93;;;3.20;;
35576;SDS011;21680;52.400;16.920;2022-08-01T00:23:09;4.25;;;3.15;;
35576;SDS011;21680;52.400;16.920;2022-08-01T00:25:35;6.78;;;3.50;;
35576;SDS011;21680;52.400;16.920;2022-08-01T00:28:02;4.70;;;3.00;;
35576;SDS011;21680;52.400;16.920;2022-08-01T00:30:28;7.75;;;3.22;;
35576;SDS011;21680;52.400;16.920;2022-08-01T00:32:54;5.33;;;3.83;;
35576;SDS011;21680;52.400;16.920;2022-08-01T00:35:20;7.25;;;3.30;;
35576;SDS011;21680;52.400;16.920;2022-08-01T00:37:45;4.87;;;2.65;;
35576;SDS011;21680;52.400;16.920;2022-08-01T00:40:11;3.85;;;2.90;;
35576;SDS011;21680;52.400;16.920;2022-08-01T00:42:37;6.08;;;2.75;;
35576;SDS011;21680;52.400;16.920;2022-08-01T00:45:03;11.18;;;3.50;;
35576;SDS011;21680;52.400;16.920;2022-08-01T00:47:31;4.12;;;3.25;;
35576;SDS011;21680;52.400;16.920;2022-08-01T00:49:57;6.85;;;3.52;;
35576;SDS011;21680;52.400;16.920;2022-08-01T00:52:22;5.37;;;3.12;;
35576;SDS011;21680;52.400;16.920;2022-08-01T00:54:48;4.72;;;3.60;;
35576;SDS011;21680;52.400;16.920;2022-08-01T00:57:14;5.58;;;3.95;;
35576;SDS011;21680;52.400;16.920;2022-08-01T00:59:40;11.63;;;7.08;;
35576;SDS011;21680;52.400;16.920;2022-08-01T01:02:06;11.18;;;5.50;;
35576;SDS011;21680;52.400;16.920;2022-08-01T01:04:33;6.78;;;5.20;;
35576;SDS011;21680;52.400;16.920;2022-08-01T01:07:34;8.28;;;6.65;;
35576;SDS011;21680;52.400;16.920;2022-08-01T01:09:52;12.15;;;7.30;;
35576;SDS011;21680;52.400;16.920;2022-08-01T01:18:23;12.37;;;6.90;;
35576;SDS011;21680;52.400;16.920;2022-08-01T01:21:14;10.20;;;6.42;;
35576;SDS011;21680;52.400;16.920;2022-08-01T01:24:10;9.75;;;6.50;;
35576;SDS011;21680;52.400;16.920;2022-08-01T01:27:10;13.25;;;6.67;;
35576;SDS011;21680;52.400;16.920;2022-08-01T01:29:56;10.43;;;7.17;;
35576;SDS011;21680;52.400;16.920;2022-08-01T01:35:04;10.13;;;6.37;;
35576;SDS011;21680;52.400;16.920;2022-08-01T01:37:37;7.58;;;5.83;;
35576;SDS011;21680;52.400;16.920;2022-08-01T01:40:06;9.35;;;5.80;;
35576;SDS011;21680;52.400;16.920;2022-08-01T01:42:35;9.85;;;5.85;;
35576;SDS011;21680;52.400;16.920;2022-08-01T01:45:04;10.23;;;6.22;;
35576;SDS011;21680;52.400;16.920;2022-08-01T01:47:32;12.93;;;6.67;;
35576;SDS011;21680;52.400;16.920;2022-08-01T01:50:00;8.80;;;6.78;;
35576;SDS011;21680;52.400;16.920;2022-08-01T01:52:28;9.68;;;6.97;;
35576;SDS011;21680;52.400;16.920;2022-08-01T01:54:56;10.05;;;7.37;;
35576;SDS011;21680;52.400;16.920;2022-08-01T01:57:27;12.33;;;7.15;;
35576;SDS011;21680;52.400;16.920;2022-08-01T01:59:53;9.13;;;6.58;;
35576;SDS011;21680;52.400;16.920;2022-08-01T02:02:21;11.03;;;5.87;;
35576;SDS011;21680;52.400;16.920;2022-08-01T02:04:49;15.72;;;5.78;;
35576;SDS011;21680;52.400;16.920;2022-08-01T02:07:19;6.33;;;4.37;;
35576;SDS011;21680;52.400;16.920;2022-08-01T02:09:47;13.57;;;4.90;;
35576;SDS011;21680;52.400;16.920;2022-08-01T02:12:16;5.90;;;4.03;;
35576;SDS011;21680;52.400;16.920;2022-08-01T02:14:44;5.12;;;3.87;;
35576;SDS011;21680;52.400;16.920;2022-08-01T02:17:14;5.53;;;3.60;;
35576;SDS011;21680;52.400;16.920;2022-08-01T02:19:43;6.03;;;3.95;;
35576;SDS011;21680;52.400;16.920;2022-08-01T02:25:14;9.43;;;3.72;;
35576;SDS011;21680;52.400;16.920;2022-08-01T02:27:58;5.58;;;3.80;;
35576;SDS011;21680;52.400;16.920;2022-08-01T02:30:32;7.35;;;3.50;;
35576;SDS011;21680;52.400;16.920;2022-08-01T02:33:08;9.63;;;4.07;;
35576;SDS011;21680;52.400;16.920;2022-08-01T02:35:49;5.75;;;3.42;;
35576;SDS011;21680;52.400;16.920;2022-08-01T02:38:22;5.25;;;3.42;;
35576;SDS011;21680;52.400;16.920;2022-08-01T02:40:50;5.00;;;3.12;;
35576;SDS011;21680;52.400;16.920;2022-08-01T02:43:19;5.85;;;4.05;;
35576;SDS011;21680;52.400;16.920;2022-08-01T02:45:47;9.13;;;3.80;;
35576;SDS011;21680;52.400;16.920;2022-08-01T02:48:17;6.07;;;3.70;;
35576;SDS011;21680;52.400;16.920;2022-08-01T02:50:47;6.12;;;4.10;;
35576;SDS011;21680;52.400;16.920;2022-08-01T02:53:16;8.83;;;4.62;;
35576;SDS011;21680;52.400;16.920;2022-08-01T02:55:45;7.33;;;4.00;;
35576;SDS011;21680;52.400;16.920;2022-08-01T02:58:14;6.17;;;3.30;;
35576;SDS011;21680;52.400;16.920;2022-08-01T03:00:44;7.92;;;3.67;;
35576;SDS011;21680;52.400;16.920;2022-08-01T03:03:13;6.03;;;3.50;;
35576;SDS011;21680;52.400;16.920;2022-08-01T03:05:41;4.87;;;3.60;;
35576;SDS011;21680;52.400;16.920;2022-08-01T03:08:09;8.55;;;3.52;;
35576;SDS011;21680;52.400;16.920;2022-08-01T03:10:37;9.53;;;4.28;;
35576;SDS011;21680;52.400;16.920;2022-08-01T03:13:06;6.70;;;3.77;;
35576;SDS011;21680;52.400;16.920;2022-08-01T03:15:35;8.50;;;3.65;;
35576;SDS011;21680;52.400;16.920;2022-08-01T03:18:05;10.00;;;3.83;;
35576;SDS011;21680;52.400;16.920;2022-08-01T03:20:33;4.67;;;3.52;;
35576;SDS011;21680;52.400;16.920;2022-08-01T03:23:04;7.35;;;4.70;;
35576;SDS011;21680;52.400;16.920;2022-08-01T03:25:32;7.17;;;3.35;;
35576;SDS011;21680;52.400;16.920;2022-08-01T03:30:30;6.75;;;3.65;;
35576;SDS011;21680;52.400;16.920;2022-08-01T03:32:59;7.22;;;3.83;;
35576;SDS011;21680;52.400;16.920;2022-08-01T03:35:33;9.08;;;3.95;;
35576;SDS011;21680;52.400;16.920;2022-08-01T03:38:05;5.65;;;4.25;;
35576;SDS011;21680;52.400;16.920;2022-08-01T03:40:39;7.08;;;4.33;;
35576;SDS011;21680;52.400;16.920;2022-08-01T03:43:37;6.10;;;3.95;;
35576;SDS011;21680;52.400;16.920;2022-08-01T03:46:06;9.48;;;3.80;;
35576;SDS011;21680;52.400;16.920;2022-08-01T03:48:42;9.30;;;4.00;;
35576;SDS011;21680;52.400;16.920;2022-08-01T03:51:12;5.03;;;3.98;;
35576;SDS011;21680;52.400;16.920;2022-08-01T03:53:41;10.38;;;4.50;;
35576;SDS011;21680;52.400;16.920;2022-08-01T03:56:09;6.47;;;4.22;;
35576;SDS011;21680;52.400;16.920;2022-08-01T03:58:36;7.78;;;4.80;;
35576;SDS011;21680;52.400;16.920;2022-08-01T04:01:05;10.98;;;4.67;;
35576;SDS011;21680;52.400;16.920;2022-08-01T04:03:32;7.08;;;4.03;;
35576;SDS011;21680;52.400;16.920;2022-08-01T04:05:59;6.58;;;4.42;;
35576;SDS011;21680;52.400;16.920;2022-08-01T04:08:33;6.65;;;4.03;;
35576;SDS011;21680;52.400;16.920;2022-08-01T04:11:02;6.47;;;4.22;;
35576;SDS011;21680;52.400;16.920;2022-08-01T04:13:28;6.03;;;4.50;;
35576;SDS011;21680;52.400;16.920;2022-08-01T04:15:56;10.20;;;4.33;;
35576;SDS011;21680;52.400;16.920;2022-08-01T04:18:22;7.53;;;4.80;;
35576;SDS011;21680;52.400;16.920;2022-08-01T04:20:48;8.48;;;4.45;;
35576;SDS011;21680;52.400;16.920;2022-08-01T04:23:15;7.85;;;4.78;;
35576;SDS011;21680;52.400;16.920;2022-08-01T04:25:43;8.40;;;5.75;;
35576;SDS011;21680;52.400;16.920;2022-08-01T04:28:12;9.13;;;4.58;;
35576;SDS011;21680;52.400;16.920;2022-08-01T04:33:11;7.72;;;4.80;;
35576;SDS011;21680;52.400;16.920;2022-08-01T04:35:46;6.70;;;5.00;;
35576;SDS011;21680;52.400;16.920;2022-08-01T04:38:12;11.12;;;4.95;;
35576;SDS011;21680;52.400;16.920;2022-08-01T04:43:08;8.25;;;4.83;;
35576;SDS011;21680;52.400;16.920;2022-08-01T04:45:34;9.68;;;5.10;;
35576;SDS011;21680;52.400;16.920;2022-08-01T04:48:01;6.65;;;4.80;;
35576;SDS011;21680;52.400;16.920;2022-08-01T04:50:32;6.58;;;4.42;;
35576;SDS011;21680;52.400;16.920;2022-08-01T04:53:02;8.03;;;4.92;;
35576;SDS011;21680;52.400;16.920;2022-08-01T04:55:29;10.80;;;5.30;;
35576;SDS011;21680;52.400;16.920;2022-08-01T04:57:58;7.08;;;4.90;;
35576;SDS011;21680;52.400;16.920;2022-08-01T05:00:24;9.63;;;5.15;;
35576;SDS011;21680;52.400;16.920;2022-08-01T05:02:50;14.30;;;4.70;;
35576;SDS011;21680;52.400;16.920;2022-08-01T05:05:16;14.75;;;5.87;;
35576;SDS011;21680;52.400;16.920;2022-08-01T05:07:41;7.53;;;5.45;;
35576;SDS011;21680;52.400;16.920;2022-08-01T05:10:08;14.35;;;5.47;;
35576;SDS011;21680;52.400;16.920;2022-08-01T05:12:34;8.10;;;4.70;;
35576;SDS011;21680;52.400;16.920;2022-08-01T05:15:01;12.60;;;5.08;;
35576;SDS011;21680;52.400;16.920;2022-08-01T05:17:27;10.58;;;5.03;;
35576;SDS011;21680;52.400;16.920;2022-08-01T05:19:53;16.27;;;6.00;;
35576;SDS011;21680;52.400;16.920;2022-08-01T05:22:19;11.75;;;4.90;;
35576;SDS011;21680;52.400;16.920;2022-08-01T05:24:45;9.68;;;5.30;;
35576;SDS011;21680;52.400;16.920;2022-08-01T05:27:12;14.43;;;5.20;;
35576;SDS011;21680;52.400;16.920;2022-08-01T05:29:38;11.85;;;4.85;;
35576;SDS011;21680;52.400;16.920;2022-08-01T05:32:05;6.58;;;4.60;;
35576;SDS011;21680;52.400;16.920;2022-08-01T05:34:31;9.25;;;5.12;;
35576;SDS011;21680;52.400;16.920;2022-08-01T05:36:58;10.20;;;5.30;;
35576;SDS011;21680;52.400;16.920;2022-08-01T05:39:24;9.43;;;4.85;;
35576;SDS011;21680;52.400;16.920;2022-08-01T05:41:50;10.08;;;5.15;;
35576;SDS011;21680;52.400;16.920;2022-08-01T05:44:15;10.18;;;5.10;;
35576;SDS011;21680;52.400;16.920;2022-08-01T05:46:41;10.18;;;5.00;;
35576;SDS011;21680;52.400;16.920;2022-08-01T05:49:08;8.65;;;4.92;;
35576;SDS011;21680;52.400;16.920;2022-08-01T05:51:34;7.45;;;4.53;;
35576;SDS011;21680;52.400;16.920;2022-08-01T05:53:59;10.95;;;5.33;;
35576;SDS011;21680;52.400;16.920;2022-08-01T05:56:26;11.70;;;5.40;;
35576;SDS011;21680;52.400;16.920;2022-08-01T05:58:52;7.65;;;4.28;;
35576;SDS011;21680;52.400;16.920;2022-08-01T06:01:18;9.85;;;4.80;;
35576;SDS011;21680;52.400;16.920;2022-08-01T06:03:44;13.28;;;5.00;;
35576;SDS011;21680;52.400;16.920;2022-08-01T06:06:11;8.43;;;5.03;;
35576;SDS011;21680;52.400;16.920;2022-08-01T06:08:39;17.52;;;6.33;;
35576;SDS011;21680;52.400;16.920;2022-08-01T06:11:05;15.75;;;5.78;;
35576;SDS011;21680;52.400;16.920;2022-08-01T06:13:31;10.93;;;4.80;;
35576;SDS011;21680;52.400;16.920;2022-08-01T06:15:59;11.05;;;5.47;;
35576;SDS011;21680;52.400;16.920;2022-08-01T06:18:25;17.52;;;6.10;;
35576;SDS011;21680;52.400;16.920;2022-08-01T06:20:51;9.60;;;5.58;;
35576;SDS011;21680;52.400;16.920;2022-08-01T06:23:17;18.87;;;9.68;;
35576;SDS011;21680;52.400;16.920;2022-08-01T06:25:43;12.40;;;6.00;;
35576;SDS011;21680;52.400;16.920;2022-08-01T06:28:09;17.15;;;5.95;;
35576;SDS011;21680;52.400;16.920;2022-08-01T06:30:35;10.23;;;5.47;;
35576;SDS011;21680;52.400;16.920;2022-08-01T06:33:01;14.80;;;6.15;;
35576;SDS011;21680;52.400;16.920;2022-08-01T06:35:28;14.35;;;6.65;;
35576;SDS011;21680;52.400;16.920;2022-08-01T06:37:56;14.98;;;5.30;;
35576;SDS011;21680;52.400;16.920;2022-08-01T06:40:22;17.37;;;6.67;;
35576;SDS011;21680;52.400;16.920;2022-08-01T06:42:49;10.32;;;5.58;;
35576;SDS011;21680;52.400;16.920;2022-08-01T06:45:15;12.95;;;6.42;;
35576;SDS011;21680;52.400;16.920;2022-08-01T06:47:42;11.03;;;5.33;;
35576;SDS011;21680;52.400;16.920;2022-08-01T06:50:12;15.10;;;7.15;;
35576;SDS011;21680;52.400;16.920;2022-08-01T06:52:40;10.53;;;5.62;;
35576;SDS011;21680;52.400;16.920;2022-08-01T06:55:06;11.38;;;6.17;;
35576;SDS011;21680;52.400;16.920;2022-08-01T06:57:33;18.70;;;6.50;;
35576;SDS011;21680;52.400;16.920;2022-08-01T07:00:06;12.98;;;5.72;;
35576;SDS011;21680;52.400;16.920;2022-08-01T07:02:34;12.98;;;5.72;;
35576;SDS011;21680;52.400;16.920;2022-08-01T07:05:01;7.72;;;5.35;;
35576;SDS011;21680;52.400;16.920;2022-08-01T07:07:29;11.38;;;5.97;;
35576;SDS011;21680;52.400;16.920;2022-08-01T07:09:55;10.75;;;6.22;;
35576;SDS011;21680;52.400;16.920;2022-08-01T07:12:21;13.03;;;6.45;;
35576;SDS011;21680;52.400;16.920;2022-08-01T07:14:47;9.70;;;5.65;;
35576;SDS011;21680;52.400;16.920;2022-08-01T07:17:13;11.90;;;6.42;;
35576;SDS011;21680;52.400;16.920;2022-08-01T07:19:39;16.90;;;5.83;;
35576;SDS011;21680;52.400;16.920;2022-08-01T07:22:05;13.43;;;6.30;;
35576;SDS011;21680;52.400;16.920;2022-08-01T07:24:31;10.30;;;6.05;;
35576;SDS011;21680;52.400;16.920;2022-08-01T07:26:57;8.98;;;5.95;;
35576;SDS011;21680;52.400;16.920;2022-08-01T07:29:23;8.50;;;6.42;;
35576;SDS011;21680;52.400;16.920;2022-08-01T07:31:54;8.43;;;6.10;;
35576;SDS011;21680;52.400;16.920;2022-08-01T07:34:22;9.60;;;5.75;;
35576;SDS011;21680;52.400;16.920;2022-08-01T07:36:50;13.75;;;5.75;;
35576;SDS011;21680;52.400;16.920;2022-08-01T07:39:17;10.72;;;5.87;;
35576;SDS011;21680;52.400;16.920;2022-08-01T07:41:44;11.10;;;5.92;;
35576;SDS011;21680;52.400;16.920;2022-08-01T07:44:10;12.20;;;6.62;;
35576;SDS011;21680;52.400;16.920;2022-08-01T07:46:36;14.35;;;6.60;;
35576;SDS011;21680;52.400;16.920;2022-08-01T07:49:02;14.30;;;6.87;;
35576;SDS011;21680;52.400;16.920;2022-08-01T07:51:27;11.68;;;6.58;;
35576;SDS011;21680;52.400;16.920;2022-08-01T07:53:53;11.35;;;5.83;;
35576;SDS011;21680;52.400;16.920;2022-08-01T07:56:19;10.65;;;6.00;;
35576;SDS011;21680;52.400;16.920;2022-08-01T07:58:45;12.00;;;6.58;;
35576;SDS011;21680;52.400;16.920;2022-08-01T08:01:13;12.82;;;6.00;;
35576;SDS011;21680;52.400;16.920;2022-08-01T08:03:39;9.58;;;6.42;;
35576;SDS011;21680;52.400;16.920;2022-08-01T08:06:05;14.40;;;6.00;;
35576;SDS011;21680;52.400;16.920;2022-08-01T08:08:30;16.52;;;7.15;;
35576;SDS011;21680;52.400;16.920;2022-08-01T08:10:56;10.98;;;6.30;;
35576;SDS011;21680;52.400;16.920;2022-08-01T08:13:22;15.28;;;6.50;;
35576;SDS011;21680;52.400;16.920;2022-08-01T08:15:48;11.22;;;6.30;;
35576;SDS011;21680;52.400;16.920;2022-08-01T08:18:14;6.58;;;5.92;;
35576;SDS011;21680;52.400;16.920;2022-08-01T08:20:41;9.73;;;6.72;;
35576;SDS011;21680;52.400;16.920;2022-08-01T08:23:07;15.68;;;5.97;;
35576;SDS011;21680;52.400;16.920;2022-08-01T08:25:34;16.48;;;6.10;;
35576;SDS011;21680;52.400;16.920;2022-08-01T08:28:02;13.32;;;6.37;;
35576;SDS011;21680;52.400;16.920;2022-08-01T08:30:28;12.88;;;6.08;;
35576;SDS011;21680;52.400;16.920;2022-08-01T08:32:54;16.02;;;6.25;;
35576;SDS011;21680;52.400;16.920;2022-08-01T08:35:20;12.55;;;5.85;;
35576;SDS011;21680;52.400;16.920;2022-08-01T08:37:46;11.00;;;5.80;;
35576;SDS011;21680;52.400;16.920;2022-08-01T08:40:13;21.05;;;6.90;;
35576;SDS011;21680;52.400;16.920;2022-08-01T08:42:40;22.52;;;6.45;;
35576;SDS011;21680;52.400;16.920;2022-08-01T08:45:06;14.98;;;6.58;;
35576;SDS011;21680;52.400;16.920;2022-08-01T08:47:33;15.43;;;5.92;;
35576;SDS011;21680;52.400;16.920;2022-08-01T08:52:33;24.02;;;6.60;;
35576;SDS011;21680;52.400;16.920;2022-08-01T08:55:01;12.82;;;6.15;;
35576;SDS011;21680;52.400;16.920;2022-08-01T08:57:27;16.82;;;7.00;;
35576;SDS011;21680;52.400;16.920;2022-08-01T08:59:53;15.55;;;6.50;;
35576;SDS011;21680;52.400;16.920;2022-08-01T09:02:20;16.60;;;5.80;;
35576;SDS011;21680;52.400;16.920;2022-08-01T09:04:47;10.38;;;6.05;;
35576;SDS011;21680;52.400;16.920;2022-08-01T09:07:14;11.18;;;5.85;;
35576;SDS011;21680;52.400;16.920;2022-08-01T09:09:40;11.15;;;6.60;;
35576;SDS011;21680;52.400;16.920;2022-08-01T09:12:06;14.18;;;6.53;;
35576;SDS011;21680;52.400;16.920;2022-08-01T09:14:32;11.03;;;6.22;;
35576;SDS011;21680;52.400;16.920;2022-08-01T09:17:04;8.88;;;5.70;;
35576;SDS011;21680;52.400;16.920;2022-08-01T09:19:38;14.10;;;6.55;;
35576;SDS011;21680;52.400;16.920;2022-08-01T09:22:14;13.32;;;5.90;;
35576;SDS011;21680;52.400;16.920;2022-08-01T09:25:04;13.18;;;6.35;;
35576;SDS011;21680;52.400;16.920;2022-08-01T09:27:34;17.57;;;6.00;;
35576;SDS011;21680;52.400;16.920;2022-08-01T09:30:14;17.00;;;5.42;;
35576;SDS011;21680;52.400;16.920;2022-08-01T09:32:55;9.05;;;5.25;;
35576;SDS011;21680;52.400;16.920;2022-08-01T09:35:33;7.65;;;4.12;;
35576;SDS011;21680;52.400;16.920;2022-08-01T09:40:58;10.45;;;4.78;;
35576;SDS011;21680;52.400;16.920;2022-08-01T09:43:26;14.78;;;4.87;;
35576;SDS011;21680;52.400;16.920;2022-08-01T09:45:55;9.58;;;4.28;;
35576;SDS011;21680;52.400;16.920;2022-08-01T09:48:22;9.63;;;3.92;;
35576;SDS011;21680;52.400;16.920;2022-08-01T09:50:49;8.65;;;3.83;;
35576;SDS011;21680;52.400;16.920;2022-08-01T09:53:17;6.92;;;3.62;;
35576;SDS011;21680;52.400;16.920;2022-08-01T09:55:45;11.53;;;3.70;;
35576;SDS011;21680;52.400;16.920;2022-08-01T09:58:11;6.62;;;3.72;;
35576;SDS011;21680;52.400;16.920;2022-08-01T10:00:37;8.35;;;3.83;;
35576;SDS011;21680;52.400;16.920;2022-08-01T10:05:50;6.78;;;2.83;;
35576;SDS011;21680;52.400;16.920;2022-08-01T10:08:18;11.57;;;2.98;;
35576;SDS011;21680;52.400;16.920;2022-08-01T10:13:34;4.05;;;1.85;;
35576;SDS011;21680;52.400;16.920;2022-08-01T10:16:00;6.47;;;2.65;;
35576;SDS011;21680;52.400;16.920;2022-08-01T10:18:26;3.02;;;1.90;;
35576;SDS011;21680;52.400;16.920;2022-08-01T10:20:56;4.70;;;2.05;;
35576;SDS011;21680;52.400;16.920;2022-08-01T10:23:25;8.63;;;1.85;;
35576;SDS011;21680;52.400;16.920;2022-08-01T10:25:55;9.70;;;1.75;;
35576;SDS011;21680;52.400;16.920;2022-08-01T10:28:24;4.22;;;1.30;;
35576;SDS011;21680;52.400;16.920;2022-08-01T10:30:51;3.80;;;1.55;;
35576;SDS011;21680;52.400;16.920;2022-08-01T10:33:17;2.47;;;1.87;;
35576;SDS011;21680;52.400;16.920;2022-08-01T10:35:45;6.62;;;1.82;;
35576;SDS011;21680;52.400;16.920;2022-08-01T10:38:11;5.12;;;2.00;;
35576;SDS011;21680;52.400;16.920;2022-08-01T10:40:37;3.45;;;2.12;;
35576;SDS011;21680;52.400;16.920;2022-08-01T10:43:09;7.03;;;2.12;;
35576;SDS011;21680;52.400;16.920;2022-08-01T10:45:36;12.80;;;2.17;;
35576;SDS011;21680;52.400;16.920;2022-08-01T10:48:06;4.85;;;1.87;;
35576;SDS011;21680;52.400;16.920;2022-08-01T10:50:52;6.47;;;1.92;;
35576;SDS011;21680;52.400;16.920;2022-08-01T10:53:23;4.87;;;2.12;;
35576;SDS011;21680;52.400;16.920;2022-08-01T10:55:59;2.42;;;2.10;;
35576;SDS011;21680;52.400;16.920;2022-08-01T10:58:34;5.60;;;1.95;;
35576;SDS011;21680;52.400;16.920;2022-08-01T11:11:59;13.78;;;2.95;;
35576;SDS011;21680;52.400;16.920;2022-08-01T11:15:15;3.30;;;1.70;;
35576;SDS011;21680;52.400;16.920;2022-08-01T11:17:32;6.03;;;1.85;;
35576;SDS011;21680;52.400;16.920;2022-08-01T11:20:12;3.85;;;2.12;;
35576;SDS011;21680;52.400;16.920;2022-08-01T11:30:46;2.47;;;2.20;;
35576;SDS011;21680;52.400;16.920;2022-08-01T11:33:15;3.98;;;2.15;;
35576;SDS011;21680;52.400;16.920;2022-08-01T11:41:32;8.30;;;1.95;;
35576;SDS011;21680;52.400;16.920;2022-08-01T11:46:45;4.80;;;1.70;;
35576;SDS011;21680;52.400;16.920;2022-08-01T11:49:33;3.40;;;1.80;;
35576;SDS011;21680;52.400;16.920;2022-08-01T11:52:17;7.83;;;2.20;;
35576;SDS011;21680;52.400;16.920;2022-08-01T11:54:53;6.28;;;2.15;;
35576;SDS011;21680;52.400;16.920;2022-08-01T11:57:30;3.05;;;2.00;;
35576;SDS011;21680;52.400;16.920;2022-08-01T11:59:59;3.27;;;1.98;;
35576;SDS011;21680;52.400;16.920;2022-08-01T12:02:28;1.77;;;1.67;;
35576;SDS011;21680;52.400;16.920;2022-08-01T12:04:58;2.27;;;2.05;;
35576;SDS011;21680;52.400;16.920;2022-08-01T12:07:40;2.75;;;1.90;;
35576;SDS011;21680;52.400;16.920;2022-08-01T12:10:15;6.67;;;4.00;;
35576;SDS011;21680;52.400;16.920;2022-08-01T12:12:44;10.88;;;5.97;;
35576;SDS011;21680;52.400;16.920;2022-08-01T12:15:13;6.75;;;2.40;;
35576;SDS011;21680;52.400;16.920;2022-08-01T12:17:41;5.90;;;2.08;;
35576;SDS011;21680;52.400;16.920;2022-08-01T12:20:14;7.97;;;2.30;;
35576;SDS011;21680;52.400;16.920;2022-08-01T12:22:43;6.33;;;1.72;;
35576;SDS011;21680;52.400;16.920;2022-08-01T12:25:13;3.47;;;2.12;;
35576;SDS011;21680;52.400;16.920;2022-08-01T12:27:42;3.22;;;2.62;;
35576;SDS011;21680;52.400;16.920;2022-08-01T12:30:12;6.80;;;2.40;;
35576;SDS011;21680;52.400;16.920;2022-08-01T12:32:40;8.63;;;1.62;;
35576;SDS011;21680;52.400;16.920;2022-08-01T12:35:10;3.25;;;2.00;;
35576;SDS011;21680;52.400;16.920;2022-08-01T12:37:49;2.62;;;2.30;;
35576;SDS011;21680;52.400;16.920;2022-08-01T12:40:25;3.37;;;2.08;;
35576;SDS011;21680;52.400;16.920;2022-08-01T12:42:59;3.10;;;2.12;;
35576;SDS011;21680;52.400;16.920;2022-08-01T12:47:58;15.40;;;2.10;;
35576;SDS011;21680;52.400;16.920;2022-08-01T12:50:26;4.47;;;1.57;;
35576;SDS011;21680;52.400;16.920;2022-08-01T12:55:23;6.25;;;2.47;;
35576;SDS011;21680;52.400;16.920;2022-08-01T12:58:07;5.45;;;2.52;;
35576;SDS011;21680;52.400;16.920;2022-08-01T13:00:37;4.70;;;1.80;;
35576;SDS011;21680;52.400;16.920;2022-08-01T13:03:12;3.20;;;2.12;;
35576;SDS011;21680;52.400;16.920;2022-08-01T13:05:45;5.60;;;2.20;;
35576;SDS011;21680;52.400;16.920;2022-08-01T13:08:23;5.03;;;1.95;;
35576;SDS011;21680;52.400;16.920;2022-08-01T13:11:10;1.75;;;1.62;;
35576;SDS011;21680;52.400;16.920;2022-08-01T13:13:46;1.42;;;1.32;;
35576;SDS011;21680;52.400;16.920;2022-08-01T13:16:21;2.08;;;1.42;;
35576;SDS011;21680;52.400;16.920;2022-08-01T13:18:49;9.40;;;2.20;;
35576;SDS011;21680;52.400;16.920;2022-08-01T13:21:19;4.78;;;3.20;;
35576;SDS011;21680;52.400;16.920;2022-08-01T13:24:01;4.12;;;2.15;;
35576;SDS011;21680;52.400;16.920;2022-08-01T13:26:44;1.70;;;1.60;;
35576;SDS011;21680;52.400;16.920;2022-08-01T13:29:13;2.12;;;1.67;;
35576;SDS011;21680;52.400;16.920;2022-08-01T13:31:46;2.77;;;1.52;;
35576;SDS011;21680;52.400;16.920;2022-08-01T13:34:12;4.20;;;1.40;;
35576;SDS011;21680;52.400;16.920;2022-08-01T13:36:39;3.52;;;1.50;;
35576;SDS011;21680;52.400;16.920;2022-08-01T13:39:06;3.95;;;2.00;;
35576;SDS011;21680;52.400;16.920;2022-08-01T13:41:51;6.22;;;2.45;;
35576;SDS011;21680;52.400;16.920;2022-08-01T13:44:17;11.85;;;2.50;;
35576;SDS011;21680;52.400;16.920;2022-08-01T13:46:44;5.83;;;2.10;;
35576;SDS011;21680;52.400;16.920;2022-08-01T13:49:12;4.58;;;2.33;;
35576;SDS011;21680;52.400;16.920;2022-08-01T13:51:38;5.15;;;1.98;;
35576;SDS011;21680;52.400;16.920;2022-08-01T13:54:04;6.50;;;1.98;;
35576;SDS011;21680;52.400;16.920;2022-08-01T13:56:32;5.00;;;2.20;;
35576;SDS011;21680;52.400;16.920;2022-08-01T13:58:58;4.78;;;2.47;;
35576;SDS011;21680;52.400;16.920;2022-08-01T14:01:24;11.83;;;2.75;;
35576;SDS011;21680;52.400;16.920;2022-08-01T14:03:50;5.92;;;2.60;;
35576;SDS011;21680;52.400;16.920;2022-08-01T14:06:17;1.95;;;1.82;;
35576;SDS011;21680;52.400;16.920;2022-08-01T14:08:45;7.08;;;2.17;;
35576;SDS011;21680;52.400;16.920;2022-08-01T14:11:11;4.75;;;2.10;;
35576;SDS011;21680;52.400;16.920;2022-08-01T14:13:37;7.67;;;2.42;;
35576;SDS011;21680;52.400;16.920;2022-08-01T14:16:07;2.50;;;2.17;;
35576;SDS011;21680;52.400;16.920;2022-08-01T14:18:33;6.95;;;3.27;;
35576;SDS011;21680;52.400;16.920;2022-08-01T14:20:59;3.33;;;3.02;;
35576;SDS011;21680;52.400;16.920;2022-08-01T14:23:25;17.70;;;11.88;;
35576;SDS011;21680;52.400;16.920;2022-08-01T14:25:52;4.67;;;2.87;;
35576;SDS011;21680;52.400;16.920;2022-08-01T14:28:18;3.52;;;2.75;;
35576;SDS011;21680;52.400;16.920;2022-08-01T14:30:45;7.90;;;3.08;;
35576;SDS011;21680;52.400;16.920;2022-08-01T14:33:11;7.03;;;2.58;;
35576;SDS011;21680;52.400;16.920;2022-08-01T14:35:38;8.25;;;3.10;;
35576;SDS011;21680;52.400;16.920;2022-08-01T14:38:05;9.08;;;2.72;;
35576;SDS011;21680;52.400;16.920;2022-08-01T14:40:31;4.65;;;2.75;;
35576;SDS011;21680;52.400;16.920;2022-08-01T14:42:56;5.08;;;2.50;;
35576;SDS011;21680;52.400;16.920;2022-08-01T14:45:22;3.02;;;2.30;;
35576;SDS011;21680;52.400;16.920;2022-08-01T14:47:49;5.65;;;2.37;;
35576;SDS011;21680;52.400;16.920;2022-08-01T14:50:15;3.17;;;1.80;;
35576;SDS011;21680;52.400;16.920;2022-08-01T14:52:42;5.62;;;2.27;;
35576;SDS011;21680;52.400;16.920;2022-08-01T14:55:09;7.20;;;3.47;;
35576;SDS011;21680;52.400;16.920;2022-08-01T14:57:37;3.72;;;1.80;;
35576;SDS011;21680;52.400;16.920;2022-08-01T15:00:05;1.87;;;1.70;;
35576;SDS011;21680;52.400;16.920;2022-08-01T15:02:40;2.67;;;1.75;;
35576;SDS011;21680;52.400;16.920;2022-08-01T15:05:07;2.50;;;2.00;;
35576;SDS011;21680;52.400;16.920;2022-08-01T15:07:34;4.87;;;1.67;;
35576;SDS011;21680;52.400;16.920;2022-08-01T15:10:02;3.02;;;1.80;;
35576;SDS011;21680;52.400;16.920;2022-08-01T15:12:32;5.90;;;1.80;;
35576;SDS011;21680;52.400;16.920;2022-08-01T15:14:59;4.22;;;1.67;;
35576;SDS011;21680;52.400;16.920;2022-08-01T15:17:30;2.90;;;1.77;;
35576;SDS011;21680;52.400;16.920;2022-08-01T15:19:56;2.45;;;1.75;;
35576;SDS011;21680;52.400;16.920;2022-08-01T15:22:25;2.92;;;1.75;;
35576;SDS011;21680;52.400;16.920;2022-08-01T15:24:53;3.45;;;2.08;;
35576;SDS011;21680;52.400;16.920;2022-08-01T15:27:21;3.70;;;1.80;;
35576;SDS011;21680;52.400;16.920;2022-08-01T15:29:48;3.95;;;1.82;;
35576;SDS011;21680;52.400;16.920;2022-08-01T15:32:16;2.67;;;1.70;;
35576;SDS011;21680;52.400;16.920;2022-08-01T15:34:42;1.80;;;1.70;;
35576;SDS011;21680;52.400;16.920;2022-08-01T15:37:08;4.17;;;1.52;;
35576;SDS011;21680;52.400;16.920;2022-08-01T15:39:36;2.90;;;1.85;;
35576;SDS011;21680;52.400;16.920;2022-08-01T15:42:10;3.37;;;1.20;;
35576;SDS011;21680;52.400;16.920;2022-08-01T15:44:36;3.20;;;1.60;;